SWR1ZB LGAV-LSZH
Flight info
| Callsign | SWR1ZB |
|---|---|
| Flight time | 2h 28m |
| Altitude | 34000 |
| Route | KOR UL53 ELVAS DCT DIMIS DCT RODON DCT VAKSU DCT SPL DCT MONFA DCT BAKOR DCT SOTOV P66 KPT L856 NEGRA |
| Aircraft | A321/M-SDE3FGHIRWY/LB1 |
Departure
| Time | 2026-04-26 19:05 |
|---|---|
| Airport | Athens Eleftherios Venizelos International Airport (LGAV) |
Arrival
| Time | 2026-04-26 21:34 |
|---|---|
| Airport | Zürich Airport (LSZH) |
| Time | Latitude | Longitude | Altitude | Speed | Heading |
|---|---|---|---|---|---|
| 2026-04-26 18:31 | 37.93606 | 23.94836 | 303 ft | 0 kts | 307° |
| 2026-04-26 18:55 | 37.93601 | 23.94845 | 301 ft | 4 kts | 307° |
| 2026-04-26 18:55 | 37.93585 | 23.94872 | 301 ft | 3 kts | 307° |
| 2026-04-26 18:55 | 37.93572 | 23.94892 | 301 ft | 4 kts | 324° |
| 2026-04-26 18:55 | 37.93549 | 23.94904 | 301 ft | 4 kts | 9° |
| 2026-04-26 18:56 | 37.93536 | 23.94898 | 301 ft | 0 kts | 37° |
| 2026-04-26 18:58 | 37.93537 | 23.94899 | 301 ft | 2 kts | 37° |
| 2026-04-26 18:58 | 37.93569 | 23.94930 | 302 ft | 9 kts | 37° |
| 2026-04-26 18:59 | 37.93613 | 23.94972 | 301 ft | 7 kts | 37° |
| 2026-04-26 18:59 | 37.93650 | 23.95007 | 301 ft | 6 kts | 37° |
| 2026-04-26 18:59 | 37.93696 | 23.95052 | 300 ft | 13 kts | 41° |
| 2026-04-26 18:59 | 37.93685 | 23.95162 | 302 ft | 14 kts | 124° |
| 2026-04-26 19:00 | 37.93650 | 23.95270 | 297 ft | 14 kts | 74° |
| 2026-04-26 19:00 | 37.93735 | 23.95362 | 298 ft | 20 kts | 37° |
| 2026-04-26 19:00 | 37.93864 | 23.95486 | 297 ft | 24 kts | 37° |
| 2026-04-26 19:00 | 37.93993 | 23.95609 | 300 ft | 23 kts | 37° |
| 2026-04-26 19:01 | 37.94115 | 23.95723 | 298 ft | 21 kts | 37° |
| 2026-04-26 19:01 | 37.94243 | 23.95845 | 299 ft | 27 kts | 37° |
| 2026-04-26 19:01 | 37.94394 | 23.95989 | 300 ft | 26 kts | 37° |
| 2026-04-26 19:01 | 37.94538 | 23.96124 | 300 ft | 25 kts | 37° |
| 2026-04-26 19:02 | 37.94676 | 23.96255 | 301 ft | 26 kts | 37° |
| 2026-04-26 19:02 | 37.94826 | 23.96397 | 300 ft | 27 kts | 37° |
| 2026-04-26 19:02 | 37.94974 | 23.96537 | 303 ft | 26 kts | 37° |
| 2026-04-26 19:02 | 37.95066 | 23.96625 | 302 ft | 25 kts | 37° |
| 2026-04-26 19:03 | 37.95242 | 23.96791 | 304 ft | 23 kts | 37° |
| 2026-04-26 19:03 | 37.95292 | 23.96906 | 305 ft | 13 kts | 118° |
| 2026-04-26 19:03 | 37.95249 | 23.96982 | 309 ft | 8 kts | 126° |
| 2026-04-26 19:03 | 37.95207 | 23.97032 | 311 ft | 7 kts | 169° |
| 2026-04-26 19:04 | 37.95175 | 23.97007 | 311 ft | 0 kts | 220° |
| 2026-04-26 19:04 | 37.95156 | 23.96988 | 310 ft | 24 kts | 217° |
| 2026-04-26 19:04 | 37.94766 | 23.96618 | 303 ft | 112 kts | 217° |
| 2026-04-26 19:04 | 37.93948 | 23.95844 | 284 ft | 178 kts | 217° |
| 2026-04-26 19:05 | 37.91793 | 23.93829 | 1678 ft | 196 kts | 214° |
| 2026-04-26 19:05 | 37.90558 | 23.92960 | 2151 ft | 209 kts | 208° |
| 2026-04-26 19:05 | 37.89237 | 23.92074 | 2481 ft | 218 kts | 208° |
| 2026-04-26 19:06 | 37.87887 | 23.91170 | 3042 ft | 220 kts | 209° |
| 2026-04-26 19:06 | 37.86525 | 23.90260 | 3637 ft | 223 kts | 209° |
| 2026-04-26 19:06 | 37.85166 | 23.89351 | 4179 ft | 226 kts | 210° |
| 2026-04-26 19:06 | 37.83764 | 23.88410 | 4739 ft | 230 kts | 210° |
| 2026-04-26 19:07 | 37.82339 | 23.87454 | 5262 ft | 234 kts | 210° |
| 2026-04-26 19:07 | 37.80892 | 23.86484 | 5781 ft | 237 kts | 211° |
| 2026-04-26 19:07 | 37.79424 | 23.85501 | 6263 ft | 240 kts | 211° |
| 2026-04-26 19:07 | 37.77936 | 23.84508 | 6754 ft | 243 kts | 211° |
| 2026-04-26 19:08 | 37.76921 | 23.83830 | 7082 ft | 245 kts | 211° |
| 2026-04-26 19:08 | 37.75411 | 23.82823 | 7615 ft | 246 kts | 210° |
| 2026-04-26 19:08 | 37.73892 | 23.81810 | 8136 ft | 247 kts | 210° |
| 2026-04-26 19:08 | 37.72388 | 23.80807 | 8660 ft | 249 kts | 210° |
| 2026-04-26 19:09 | 37.70851 | 23.79782 | 9172 ft | 250 kts | 210° |
| 2026-04-26 19:09 | 37.69303 | 23.78750 | 9691 ft | 252 kts | 210° |
| 2026-04-26 19:09 | 37.67738 | 23.77709 | 10018 ft | 258 kts | 210° |
| 2026-04-26 19:09 | 37.66149 | 23.76652 | 10518 ft | 257 kts | 210° |
| 2026-04-26 19:10 | 37.64564 | 23.75598 | 11010 ft | 258 kts | 210° |
| 2026-04-26 19:10 | 37.62969 | 23.74536 | 11464 ft | 260 kts | 209° |
| 2026-04-26 19:10 | 37.61338 | 23.73452 | 11931 ft | 263 kts | 209° |
| 2026-04-26 19:10 | 37.59716 | 23.72370 | 12395 ft | 265 kts | 209° |
| 2026-04-26 19:11 | 37.58104 | 23.71293 | 12859 ft | 267 kts | 210° |
| 2026-04-26 19:11 | 37.56626 | 23.69909 | 13298 ft | 266 kts | 233° |
| 2026-04-26 19:11 | 37.55781 | 23.67877 | 13751 ft | 262 kts | 258° |
| 2026-04-26 19:11 | 37.55398 | 23.65635 | 14188 ft | 262 kts | 261° |
| 2026-04-26 19:12 | 37.55017 | 23.63379 | 14600 ft | 264 kts | 261° |
| 2026-04-26 19:12 | 37.54630 | 23.61111 | 15008 ft | 266 kts | 261° |
| 2026-04-26 19:12 | 37.54239 | 23.58825 | 15416 ft | 268 kts | 261° |
| 2026-04-26 19:12 | 37.53843 | 23.56526 | 15815 ft | 271 kts | 261° |
| 2026-04-26 19:13 | 37.53439 | 23.54182 | 16170 ft | 278 kts | 261° |
| 2026-04-26 19:13 | 37.53023 | 23.51774 | 16586 ft | 284 kts | 261° |
| 2026-04-26 19:13 | 37.52601 | 23.49329 | 17054 ft | 287 kts | 261° |
| 2026-04-26 19:13 | 37.52353 | 23.46795 | 17288 ft | 298 kts | 278° |
| 2026-04-26 19:14 | 37.52907 | 23.44264 | 17415 ft | 307 kts | 302° |
| 2026-04-26 19:14 | 37.54259 | 23.42147 | 17558 ft | 318 kts | 317° |
| 2026-04-26 19:14 | 37.55875 | 23.40144 | 17692 ft | 334 kts | 317° |
| 2026-04-26 19:14 | 37.56991 | 23.38770 | 17779 ft | 343 kts | 317° |
| 2026-04-26 19:15 | 37.59345 | 23.35878 | 17956 ft | 363 kts | 317° |
| 2026-04-26 19:15 | 37.61171 | 23.33622 | 18250 ft | 371 kts | 317° |
| 2026-04-26 19:15 | 37.63017 | 23.31321 | 18670 ft | 375 kts | 316° |
| 2026-04-26 19:15 | 37.64872 | 23.28999 | 19113 ft | 377 kts | 316° |
| 2026-04-26 19:16 | 37.66738 | 23.26661 | 19564 ft | 379 kts | 316° |
| 2026-04-26 19:16 | 37.68613 | 23.24308 | 20012 ft | 381 kts | 316° |
| 2026-04-26 19:16 | 37.70494 | 23.21946 | 20450 ft | 383 kts | 316° |
| 2026-04-26 19:16 | 37.72389 | 23.19570 | 20894 ft | 385 kts | 316° |
| 2026-04-26 19:17 | 37.74291 | 23.17184 | 21331 ft | 387 kts | 316° |
| 2026-04-26 19:17 | 37.76208 | 23.14780 | 21765 ft | 389 kts | 316° |
| 2026-04-26 19:17 | 37.78134 | 23.12365 | 22195 ft | 391 kts | 316° |
| 2026-04-26 19:17 | 37.80072 | 23.09937 | 22610 ft | 393 kts | 316° |
| 2026-04-26 19:18 | 37.82022 | 23.07493 | 23005 ft | 396 kts | 316° |
| 2026-04-26 19:18 | 37.83980 | 23.05031 | 23414 ft | 398 kts | 315° |
| 2026-04-26 19:18 | 37.85943 | 23.02556 | 23797 ft | 400 kts | 315° |
| 2026-04-26 19:18 | 37.87919 | 23.00062 | 24137 ft | 402 kts | 315° |
| 2026-04-26 19:19 | 37.89902 | 22.97557 | 24476 ft | 404 kts | 315° |
| 2026-04-26 19:19 | 37.91892 | 22.95042 | 24812 ft | 405 kts | 315° |
| 2026-04-26 19:19 | 37.93738 | 22.92340 | 25139 ft | 408 kts | 306° |
| 2026-04-26 19:19 | 37.95347 | 22.89428 | 25470 ft | 409 kts | 306° |
| 2026-04-26 19:20 | 37.96979 | 22.86463 | 25790 ft | 411 kts | 305° |
| 2026-04-26 19:20 | 37.98087 | 22.84454 | 26012 ft | 413 kts | 305° |
| 2026-04-26 19:20 | 38.00270 | 22.80495 | 26433 ft | 415 kts | 305° |
| 2026-04-26 19:20 | 38.01924 | 22.77488 | 26747 ft | 416 kts | 305° |
| 2026-04-26 19:21 | 38.03583 | 22.74466 | 27039 ft | 419 kts | 305° |
| 2026-04-26 19:21 | 38.05248 | 22.71426 | 27346 ft | 420 kts | 305° |
| 2026-04-26 19:21 | 38.06919 | 22.68372 | 27649 ft | 422 kts | 305° |
| 2026-04-26 19:21 | 38.08595 | 22.65304 | 27947 ft | 424 kts | 304° |
| 2026-04-26 19:22 | 38.10279 | 22.62221 | 28243 ft | 426 kts | 304° |
| 2026-04-26 19:22 | 38.11969 | 22.59131 | 28528 ft | 427 kts | 304° |
| 2026-04-26 19:22 | 38.13669 | 22.56026 | 28807 ft | 429 kts | 304° |
| 2026-04-26 19:22 | 38.15372 | 22.52913 | 29074 ft | 430 kts | 304° |
| 2026-04-26 19:23 | 38.17085 | 22.49779 | 29334 ft | 432 kts | 304° |
| 2026-04-26 19:23 | 38.18797 | 22.46636 | 29598 ft | 434 kts | 304° |
| 2026-04-26 19:23 | 38.20517 | 22.43473 | 29846 ft | 436 kts | 304° |
| 2026-04-26 19:23 | 38.22242 | 22.40299 | 30070 ft | 438 kts | 304° |
| 2026-04-26 19:24 | 38.23983 | 22.37101 | 30286 ft | 440 kts | 304° |
| 2026-04-26 19:24 | 38.25726 | 22.33899 | 30558 ft | 440 kts | 304° |
| 2026-04-26 19:24 | 38.29194 | 22.27503 | 31210 ft | 438 kts | 303° |
| 2026-04-26 19:25 | 38.30921 | 22.24311 | 31542 ft | 437 kts | 303° |
| 2026-04-26 19:25 | 38.32062 | 22.22205 | 31768 ft | 436 kts | 303° |
| 2026-04-26 19:25 | 38.34356 | 22.17955 | 32212 ft | 435 kts | 303° |
| 2026-04-26 19:25 | 38.36063 | 22.14784 | 32548 ft | 434 kts | 303° |
| 2026-04-26 19:26 | 38.37768 | 22.11616 | 32866 ft | 433 kts | 303° |
| 2026-04-26 19:26 | 38.39471 | 22.08451 | 33165 ft | 433 kts | 303° |
| 2026-04-26 19:26 | 38.41151 | 22.05329 | 33470 ft | 433 kts | 303° |
| 2026-04-26 19:26 | 38.42871 | 22.02129 | 33801 ft | 432 kts | 303° |
| 2026-04-26 19:27 | 38.44546 | 21.99005 | 34044 ft | 432 kts | 302° |
| 2026-04-26 19:27 | 38.46235 | 21.95855 | 34100 ft | 428 kts | 302° |
| 2026-04-26 19:27 | 38.49571 | 21.89627 | 34113 ft | 424 kts | 302° |
| 2026-04-26 19:28 | 38.53356 | 21.83861 | 34105 ft | 427 kts | 317° |
| 2026-04-26 19:28 | 38.58305 | 21.79616 | 34111 ft | 430 kts | 326° |
| 2026-04-26 19:29 | 38.63418 | 21.75608 | 34110 ft | 432 kts | 326° |
| 2026-04-26 19:29 | 38.68529 | 21.71567 | 34105 ft | 432 kts | 325° |
| 2026-04-26 19:30 | 38.73641 | 21.67512 | 34117 ft | 432 kts | 325° |
| 2026-04-26 19:30 | 38.77895 | 21.64146 | 34113 ft | 432 kts | 325° |
| 2026-04-26 19:31 | 38.83880 | 21.59409 | 34120 ft | 432 kts | 326° |
| 2026-04-26 19:31 | 38.88996 | 21.55357 | 34134 ft | 432 kts | 325° |
| 2026-04-26 19:32 | 38.94109 | 21.51296 | 34127 ft | 432 kts | 325° |
| 2026-04-26 19:32 | 38.99215 | 21.47232 | 34126 ft | 431 kts | 325° |
| 2026-04-26 19:33 | 39.04312 | 21.43160 | 34126 ft | 431 kts | 325° |
| 2026-04-26 19:33 | 39.09400 | 21.39082 | 34129 ft | 431 kts | 325° |
| 2026-04-26 19:34 | 39.14486 | 21.35006 | 34127 ft | 431 kts | 325° |
| 2026-04-26 19:34 | 39.19572 | 21.30929 | 34121 ft | 430 kts | 325° |
| 2026-04-26 19:35 | 39.24650 | 21.26855 | 34133 ft | 429 kts | 325° |
| 2026-04-26 19:35 | 39.29720 | 21.22775 | 34112 ft | 429 kts | 325° |
| 2026-04-26 19:36 | 39.33929 | 21.19388 | 34108 ft | 429 kts | 325° |
| 2026-04-26 19:36 | 39.39845 | 21.14612 | 34117 ft | 429 kts | 325° |
| 2026-04-26 19:37 | 39.44907 | 21.10521 | 34118 ft | 429 kts | 325° |
| 2026-04-26 19:37 | 39.49967 | 21.06424 | 34117 ft | 429 kts | 325° |
| 2026-04-26 19:38 | 39.55013 | 21.02318 | 34117 ft | 429 kts | 325° |
| 2026-04-26 19:38 | 39.60028 | 20.98232 | 34120 ft | 429 kts | 325° |
| 2026-04-26 19:39 | 39.65080 | 20.94115 | 34136 ft | 429 kts | 325° |
| 2026-04-26 19:39 | 39.70131 | 20.89991 | 34138 ft | 429 kts | 325° |
| 2026-04-26 19:40 | 39.75183 | 20.85857 | 34137 ft | 429 kts | 325° |
| 2026-04-26 19:40 | 39.80234 | 20.81724 | 34131 ft | 429 kts | 325° |
| 2026-04-26 19:41 | 39.85284 | 20.77586 | 34120 ft | 429 kts | 326° |
| 2026-04-26 19:41 | 39.89486 | 20.74137 | 34120 ft | 429 kts | 326° |
| 2026-04-26 19:42 | 39.95387 | 20.69283 | 34110 ft | 429 kts | 326° |
| 2026-04-26 19:42 | 40.00434 | 20.65118 | 34094 ft | 429 kts | 326° |
| 2026-04-26 19:43 | 40.05472 | 20.60948 | 34091 ft | 429 kts | 326° |
| 2026-04-26 19:43 | 40.10245 | 20.56333 | 34092 ft | 427 kts | 319° |
| 2026-04-26 19:44 | 40.14875 | 20.51460 | 34102 ft | 427 kts | 320° |
| 2026-04-26 19:44 | 40.19503 | 20.46589 | 34103 ft | 427 kts | 320° |
| 2026-04-26 19:45 | 40.24129 | 20.41705 | 34105 ft | 427 kts | 320° |
| 2026-04-26 19:45 | 40.28753 | 20.36815 | 34096 ft | 427 kts | 320° |
| 2026-04-26 19:46 | 40.33381 | 20.31922 | 34096 ft | 427 kts | 320° |
| 2026-04-26 19:46 | 40.38001 | 20.27018 | 34095 ft | 427 kts | 320° |
| 2026-04-26 19:47 | 40.41062 | 20.23760 | 34104 ft | 428 kts | 320° |
| 2026-04-26 19:47 | 40.47246 | 20.17187 | 34099 ft | 427 kts | 320° |
| 2026-04-26 19:48 | 40.51833 | 20.12302 | 34100 ft | 428 kts | 320° |
| 2026-04-26 19:48 | 40.56453 | 20.07368 | 34097 ft | 428 kts | 320° |
| 2026-04-26 19:49 | 40.61070 | 20.02425 | 34091 ft | 428 kts | 320° |
| 2026-04-26 19:49 | 40.65689 | 19.97472 | 34102 ft | 428 kts | 320° |
| 2026-04-26 19:50 | 40.70302 | 19.92510 | 34102 ft | 428 kts | 319° |
| 2026-04-26 19:50 | 40.74907 | 19.87538 | 34100 ft | 428 kts | 319° |
| 2026-04-26 19:51 | 40.79525 | 19.82563 | 34100 ft | 428 kts | 319° |
| 2026-04-26 19:51 | 40.84123 | 19.77596 | 34098 ft | 428 kts | 320° |
| 2026-04-26 19:52 | 40.88725 | 19.72617 | 34100 ft | 427 kts | 320° |
| 2026-04-26 19:52 | 40.93320 | 19.67641 | 34120 ft | 427 kts | 319° |
| 2026-04-26 19:53 | 40.97898 | 19.62661 | 34115 ft | 426 kts | 319° |
| 2026-04-26 19:53 | 41.02466 | 19.57677 | 34113 ft | 425 kts | 319° |
| 2026-04-26 19:54 | 41.07029 | 19.52698 | 34113 ft | 425 kts | 319° |
| 2026-04-26 19:54 | 41.11589 | 19.47714 | 34110 ft | 425 kts | 319° |
| 2026-04-26 19:55 | 41.16143 | 19.42732 | 34111 ft | 424 kts | 319° |
| 2026-04-26 19:55 | 41.20692 | 19.37741 | 34114 ft | 424 kts | 319° |
| 2026-04-26 19:56 | 41.24469 | 19.33599 | 34113 ft | 423 kts | 319° |
| 2026-04-26 19:56 | 41.29010 | 19.28608 | 34110 ft | 423 kts | 319° |
| 2026-04-26 19:57 | 41.33542 | 19.23614 | 34111 ft | 423 kts | 319° |
| 2026-04-26 19:57 | 41.38069 | 19.18602 | 34110 ft | 423 kts | 319° |
| 2026-04-26 19:58 | 41.42592 | 19.13594 | 34115 ft | 423 kts | 319° |
| 2026-04-26 19:58 | 41.47127 | 19.08600 | 34113 ft | 423 kts | 320° |
| 2026-04-26 19:59 | 41.51781 | 19.03794 | 34109 ft | 423 kts | 322° |
| 2026-04-26 19:59 | 41.56492 | 18.99084 | 34108 ft | 423 kts | 322° |
| 2026-04-26 20:00 | 41.61181 | 18.94337 | 34110 ft | 423 kts | 321° |
| 2026-04-26 20:00 | 41.65842 | 18.89551 | 34118 ft | 423 kts | 321° |
| 2026-04-26 20:01 | 41.70499 | 18.84737 | 34111 ft | 423 kts | 321° |
| 2026-04-26 20:01 | 41.75158 | 18.79928 | 34106 ft | 423 kts | 321° |
| 2026-04-26 20:02 | 41.79827 | 18.75124 | 34100 ft | 423 kts | 321° |
| 2026-04-26 20:02 | 41.83701 | 18.71124 | 34103 ft | 423 kts | 321° |
| 2026-04-26 20:03 | 41.89136 | 18.65485 | 34113 ft | 422 kts | 321° |
| 2026-04-26 20:03 | 41.93786 | 18.60657 | 34104 ft | 423 kts | 321° |
| 2026-04-26 20:04 | 41.98403 | 18.55844 | 34101 ft | 423 kts | 321° |
| 2026-04-26 20:04 | 42.02827 | 18.50671 | 34095 ft | 422 kts | 312° |
| 2026-04-26 20:05 | 42.06817 | 18.44876 | 34091 ft | 422 kts | 312° |
| 2026-04-26 20:05 | 42.10817 | 18.39095 | 34077 ft | 422 kts | 312° |
| 2026-04-26 20:06 | 42.14810 | 18.33309 | 34092 ft | 421 kts | 312° |
| 2026-04-26 20:06 | 42.18799 | 18.27510 | 34084 ft | 422 kts | 312° |
| 2026-04-26 20:07 | 42.22786 | 18.21703 | 34088 ft | 422 kts | 312° |
| 2026-04-26 20:07 | 42.26771 | 18.15879 | 34084 ft | 422 kts | 312° |
| 2026-04-26 20:08 | 42.30752 | 18.10053 | 34085 ft | 422 kts | 312° |
| 2026-04-26 20:08 | 42.34737 | 18.04215 | 34087 ft | 422 kts | 312° |
| 2026-04-26 20:09 | 42.38721 | 17.98374 | 34090 ft | 422 kts | 312° |
| 2026-04-26 20:09 | 42.42693 | 17.92521 | 34086 ft | 422 kts | 312° |
| 2026-04-26 20:10 | 42.46667 | 17.86657 | 34089 ft | 423 kts | 312° |
| 2026-04-26 20:10 | 42.50646 | 17.80791 | 34086 ft | 423 kts | 312° |
| 2026-04-26 20:11 | 42.54620 | 17.74915 | 34084 ft | 423 kts | 312° |
| 2026-04-26 20:12 | 42.60561 | 17.66074 | 34096 ft | 422 kts | 312° |
| 2026-04-26 20:12 | 42.64513 | 17.60179 | 34102 ft | 422 kts | 312° |
| 2026-04-26 20:13 | 42.68465 | 17.54279 | 34107 ft | 422 kts | 312° |
| 2026-04-26 20:13 | 42.72389 | 17.48417 | 34101 ft | 422 kts | 312° |
| 2026-04-26 20:14 | 42.76341 | 17.42509 | 34106 ft | 422 kts | 312° |
| 2026-04-26 20:14 | 42.80289 | 17.36590 | 34104 ft | 422 kts | 312° |
| 2026-04-26 20:15 | 42.84227 | 17.30666 | 34112 ft | 422 kts | 312° |
| 2026-04-26 20:15 | 42.88164 | 17.24739 | 34111 ft | 421 kts | 312° |
| 2026-04-26 20:16 | 42.92093 | 17.18807 | 34125 ft | 421 kts | 312° |
| 2026-04-26 20:16 | 42.96023 | 17.12871 | 34117 ft | 421 kts | 311° |
| 2026-04-26 20:17 | 42.99949 | 17.06924 | 34111 ft | 422 kts | 311° |
| 2026-04-26 20:17 | 43.03871 | 17.00962 | 34110 ft | 422 kts | 311° |
| 2026-04-26 20:18 | 43.07787 | 16.94995 | 34116 ft | 421 kts | 311° |
| 2026-04-26 20:18 | 43.11703 | 16.89030 | 34117 ft | 421 kts | 311° |
| 2026-04-26 20:19 | 43.15613 | 16.83053 | 34113 ft | 421 kts | 311° |
| 2026-04-26 20:19 | 43.19518 | 16.77062 | 34125 ft | 421 kts | 311° |
| 2026-04-26 20:20 | 43.23420 | 16.71075 | 34117 ft | 422 kts | 311° |
| 2026-04-26 20:20 | 43.27323 | 16.65067 | 34110 ft | 421 kts | 311° |
| 2026-04-26 20:21 | 43.31219 | 16.59056 | 34109 ft | 421 kts | 311° |
| 2026-04-26 20:21 | 43.35093 | 16.53082 | 34112 ft | 421 kts | 311° |
| 2026-04-26 20:22 | 43.39012 | 16.47025 | 34110 ft | 421 kts | 311° |
| 2026-04-26 20:22 | 43.42870 | 16.41034 | 34114 ft | 421 kts | 311° |
| 2026-04-26 20:23 | 43.46754 | 16.34999 | 34111 ft | 421 kts | 311° |
| 2026-04-26 20:23 | 43.50639 | 16.28970 | 34108 ft | 421 kts | 311° |
| 2026-04-26 20:24 | 43.54661 | 16.23091 | 34106 ft | 421 kts | 313° |
| 2026-04-26 20:24 | 43.58751 | 16.17296 | 34105 ft | 422 kts | 313° |
| 2026-04-26 20:25 | 43.62820 | 16.11468 | 34110 ft | 422 kts | 313° |
| 2026-04-26 20:25 | 43.66861 | 16.05605 | 34112 ft | 422 kts | 313° |
| 2026-04-26 20:26 | 43.70890 | 15.99719 | 34115 ft | 422 kts | 313° |
| 2026-04-26 20:26 | 43.74929 | 15.93833 | 34112 ft | 422 kts | 312° |
| 2026-04-26 20:27 | 43.78964 | 15.87946 | 34113 ft | 422 kts | 312° |
| 2026-04-26 20:27 | 43.82994 | 15.82042 | 34114 ft | 422 kts | 312° |
| 2026-04-26 20:28 | 43.87021 | 15.76128 | 34119 ft | 422 kts | 312° |
| 2026-04-26 20:28 | 43.91051 | 15.70210 | 34139 ft | 422 kts | 312° |
| 2026-04-26 20:29 | 43.95075 | 15.64273 | 34129 ft | 422 kts | 312° |
| 2026-04-26 20:29 | 43.99093 | 15.58343 | 34132 ft | 422 kts | 312° |
| 2026-04-26 20:30 | 44.03102 | 15.52407 | 34133 ft | 421 kts | 312° |
| 2026-04-26 20:30 | 44.07109 | 15.46466 | 34134 ft | 421 kts | 312° |
| 2026-04-26 20:31 | 44.11084 | 15.40558 | 34137 ft | 421 kts | 312° |
| 2026-04-26 20:31 | 44.15084 | 15.34610 | 34130 ft | 421 kts | 312° |
| 2026-04-26 20:32 | 44.19104 | 15.28613 | 34142 ft | 420 kts | 312° |
| 2026-04-26 20:32 | 44.23063 | 15.22693 | 34138 ft | 420 kts | 312° |
| 2026-04-26 20:33 | 44.27047 | 15.16718 | 34130 ft | 420 kts | 312° |
| 2026-04-26 20:33 | 44.31022 | 15.10739 | 34126 ft | 420 kts | 312° |
| 2026-04-26 20:34 | 44.34997 | 15.04757 | 34122 ft | 420 kts | 312° |
| 2026-04-26 20:34 | 44.38970 | 14.98776 | 34123 ft | 420 kts | 312° |
| 2026-04-26 20:35 | 44.42935 | 14.92791 | 34131 ft | 419 kts | 311° |
| 2026-04-26 20:35 | 44.46891 | 14.86798 | 34129 ft | 419 kts | 311° |
| 2026-04-26 20:36 | 44.50841 | 14.80799 | 34123 ft | 419 kts | 311° |
| 2026-04-26 20:36 | 44.54782 | 14.74798 | 34118 ft | 419 kts | 311° |
| 2026-04-26 20:37 | 44.58725 | 14.68780 | 34117 ft | 419 kts | 311° |
| 2026-04-26 20:37 | 44.62664 | 14.62764 | 34112 ft | 419 kts | 311° |
| 2026-04-26 20:38 | 44.66600 | 14.56740 | 34119 ft | 419 kts | 311° |
| 2026-04-26 20:38 | 44.70533 | 14.50704 | 34112 ft | 418 kts | 311° |
| 2026-04-26 20:39 | 44.74462 | 14.44670 | 34123 ft | 418 kts | 311° |
| 2026-04-26 20:39 | 44.78380 | 14.38624 | 34124 ft | 418 kts | 311° |
| 2026-04-26 20:40 | 44.82295 | 14.32575 | 34122 ft | 417 kts | 311° |
| 2026-04-26 20:40 | 44.86205 | 14.26534 | 34123 ft | 417 kts | 311° |
| 2026-04-26 20:41 | 44.90081 | 14.20526 | 34130 ft | 417 kts | 311° |
| 2026-04-26 20:41 | 44.93977 | 14.14465 | 34133 ft | 416 kts | 311° |
| 2026-04-26 20:42 | 44.97859 | 14.08407 | 34129 ft | 416 kts | 311° |
| 2026-04-26 20:42 | 45.01739 | 14.02356 | 34126 ft | 415 kts | 311° |
| 2026-04-26 20:43 | 45.05611 | 13.96301 | 34126 ft | 415 kts | 311° |
| 2026-04-26 20:43 | 45.09471 | 13.90243 | 34125 ft | 414 kts | 311° |
| 2026-04-26 20:44 | 45.13328 | 13.84188 | 34137 ft | 414 kts | 311° |
| 2026-04-26 20:44 | 45.16552 | 13.79113 | 34141 ft | 413 kts | 310° |
| 2026-04-26 20:45 | 45.20379 | 13.73061 | 34141 ft | 412 kts | 310° |
| 2026-04-26 20:45 | 45.24209 | 13.67014 | 34141 ft | 412 kts | 310° |
| 2026-04-26 20:46 | 45.28030 | 13.60956 | 34134 ft | 412 kts | 310° |
| 2026-04-26 20:46 | 45.31845 | 13.54904 | 34138 ft | 411 kts | 310° |
| 2026-04-26 20:47 | 45.35628 | 13.48885 | 34143 ft | 411 kts | 310° |
| 2026-04-26 20:47 | 45.39421 | 13.42817 | 34144 ft | 411 kts | 310° |
| 2026-04-26 20:48 | 45.43214 | 13.36741 | 34136 ft | 411 kts | 310° |
| 2026-04-26 20:48 | 45.47014 | 13.30665 | 34131 ft | 411 kts | 310° |
| 2026-04-26 20:49 | 45.51007 | 13.24852 | 34129 ft | 411 kts | 314° |
| 2026-04-26 20:49 | 45.55169 | 13.19257 | 34126 ft | 411 kts | 314° |
| 2026-04-26 20:50 | 45.59324 | 13.13666 | 34122 ft | 411 kts | 314° |
| 2026-04-26 20:50 | 45.63467 | 13.08053 | 34110 ft | 411 kts | 314° |
| 2026-04-26 20:51 | 45.67617 | 13.02430 | 34109 ft | 411 kts | 314° |
| 2026-04-26 20:51 | 45.71771 | 12.96800 | 34115 ft | 411 kts | 314° |
| 2026-04-26 20:52 | 45.75925 | 12.91160 | 34111 ft | 411 kts | 314° |
| 2026-04-26 20:52 | 45.80069 | 12.85523 | 34112 ft | 411 kts | 314° |
| 2026-04-26 20:53 | 45.84211 | 12.79866 | 34117 ft | 411 kts | 314° |
| 2026-04-26 20:53 | 45.88348 | 12.74207 | 34122 ft | 411 kts | 314° |
| 2026-04-26 20:54 | 45.92487 | 12.68527 | 34125 ft | 411 kts | 313° |
| 2026-04-26 20:54 | 45.96622 | 12.62844 | 34137 ft | 411 kts | 313° |
| 2026-04-26 20:55 | 46.00748 | 12.57149 | 34142 ft | 411 kts | 313° |
| 2026-04-26 20:55 | 46.04851 | 12.51487 | 34147 ft | 411 kts | 313° |
| 2026-04-26 20:56 | 46.08970 | 12.45783 | 34147 ft | 411 kts | 313° |
| 2026-04-26 20:56 | 46.13092 | 12.40066 | 34156 ft | 411 kts | 313° |
| 2026-04-26 20:57 | 46.17212 | 12.34339 | 34155 ft | 411 kts | 313° |
| 2026-04-26 20:57 | 46.21327 | 12.28610 | 34162 ft | 411 kts | 313° |
| 2026-04-26 20:58 | 46.25428 | 12.22860 | 33986 ft | 411 kts | 311° |
| 2026-04-26 20:58 | 46.29493 | 12.17076 | 34143 ft | 412 kts | 313° |
| 2026-04-26 20:59 | 46.33638 | 12.11340 | 34172 ft | 412 kts | 313° |
| 2026-04-26 20:59 | 46.37778 | 12.05593 | 34174 ft | 412 kts | 313° |
| 2026-04-26 21:00 | 46.41900 | 11.99807 | 34170 ft | 413 kts | 313° |
| 2026-04-26 21:00 | 46.46005 | 11.93995 | 34172 ft | 412 kts | 313° |
| 2026-04-26 21:01 | 46.50104 | 11.88178 | 34172 ft | 412 kts | 313° |
| 2026-04-26 21:01 | 46.54204 | 11.82373 | 34165 ft | 412 kts | 313° |
| 2026-04-26 21:02 | 46.58297 | 11.76545 | 34164 ft | 412 kts | 313° |
| 2026-04-26 21:02 | 46.62352 | 11.70724 | 34152 ft | 412 kts | 312° |
| 2026-04-26 21:03 | 46.66309 | 11.64691 | 34147 ft | 412 kts | 310° |
| 2026-04-26 21:03 | 46.70209 | 11.58592 | 34140 ft | 412 kts | 310° |
| 2026-04-26 21:04 | 46.74124 | 11.52495 | 34145 ft | 412 kts | 311° |
| 2026-04-26 21:04 | 46.78055 | 11.46432 | 34150 ft | 412 kts | 311° |
| 2026-04-26 21:05 | 46.81991 | 11.40352 | 34182 ft | 412 kts | 311° |
| 2026-04-26 21:05 | 46.85909 | 11.34269 | 34181 ft | 411 kts | 311° |
| 2026-04-26 21:06 | 46.89822 | 11.28191 | 34188 ft | 410 kts | 311° |
| 2026-04-26 21:06 | 46.93750 | 11.22159 | 34187 ft | 410 kts | 316° |
| 2026-04-26 21:07 | 46.98424 | 11.17355 | 34189 ft | 412 kts | 325° |
| 2026-04-26 21:07 | 47.03254 | 11.12928 | 34183 ft | 412 kts | 325° |
| 2026-04-26 21:08 | 47.08113 | 11.08439 | 34188 ft | 413 kts | 324° |
| 2026-04-26 21:08 | 47.12615 | 11.03269 | 34192 ft | 411 kts | 319° |
| 2026-04-26 21:09 | 47.17052 | 10.97960 | 34198 ft | 411 kts | 319° |
| 2026-04-26 21:09 | 47.21493 | 10.92652 | 34206 ft | 412 kts | 319° |
| 2026-04-26 21:10 | 47.25936 | 10.87321 | 34209 ft | 412 kts | 319° |
| 2026-04-26 21:10 | 47.28158 | 10.84651 | 33931 ft | 412 kts | 319° |
| 2026-04-26 21:10 | 47.30372 | 10.81988 | 33509 ft | 409 kts | 319° |
| 2026-04-26 21:10 | 47.32561 | 10.79346 | 33010 ft | 405 kts | 319° |
| 2026-04-26 21:11 | 47.34728 | 10.76723 | 32508 ft | 401 kts | 319° |
| 2026-04-26 21:11 | 47.36878 | 10.74121 | 32007 ft | 398 kts | 319° |
| 2026-04-26 21:11 | 47.39017 | 10.71549 | 31516 ft | 396 kts | 320° |
| 2026-04-26 21:11 | 47.41208 | 10.69107 | 31001 ft | 393 kts | 322° |
| 2026-04-26 21:12 | 47.43447 | 10.66799 | 30496 ft | 392 kts | 324° |
| 2026-04-26 21:12 | 47.45707 | 10.64565 | 29946 ft | 390 kts | 324° |
| 2026-04-26 21:12 | 47.47956 | 10.62365 | 29453 ft | 386 kts | 324° |
| 2026-04-26 21:12 | 47.50177 | 10.60171 | 28963 ft | 382 kts | 324° |
| 2026-04-26 21:13 | 47.52366 | 10.57975 | 28467 ft | 378 kts | 323° |
| 2026-04-26 21:13 | 47.54525 | 10.55779 | 27985 ft | 375 kts | 323° |
| 2026-04-26 21:13 | 47.56659 | 10.53588 | 27505 ft | 372 kts | 323° |
| 2026-04-26 21:13 | 47.58769 | 10.51404 | 27042 ft | 368 kts | 323° |
| 2026-04-26 21:14 | 47.60854 | 10.49235 | 26584 ft | 365 kts | 323° |
| 2026-04-26 21:14 | 47.62920 | 10.47083 | 26141 ft | 361 kts | 323° |
| 2026-04-26 21:14 | 47.64965 | 10.44957 | 25712 ft | 358 kts | 323° |
| 2026-04-26 21:14 | 47.66995 | 10.42848 | 25275 ft | 355 kts | 323° |
| 2026-04-26 21:15 | 47.69009 | 10.40756 | 24854 ft | 352 kts | 323° |
| 2026-04-26 21:15 | 47.70951 | 10.38582 | 24427 ft | 348 kts | 316° |
| 2026-04-26 21:15 | 47.72533 | 10.35897 | 24009 ft | 345 kts | 303° |
| 2026-04-26 21:15 | 47.73651 | 10.32771 | 23549 ft | 342 kts | 291° |
| 2026-04-26 21:16 | 47.74266 | 10.29380 | 23095 ft | 339 kts | 279° |
| 2026-04-26 21:16 | 47.74376 | 10.25897 | 22687 ft | 337 kts | 269° |
| 2026-04-26 21:16 | 47.74296 | 10.22429 | 22258 ft | 334 kts | 269° |
| 2026-04-26 21:16 | 47.74215 | 10.19001 | 21846 ft | 331 kts | 269° |
| 2026-04-26 21:17 | 47.74134 | 10.15599 | 21425 ft | 328 kts | 269° |
| 2026-04-26 21:17 | 47.74055 | 10.12224 | 20991 ft | 326 kts | 270° |
| 2026-04-26 21:17 | 47.73977 | 10.08868 | 20574 ft | 324 kts | 270° |
| 2026-04-26 21:17 | 47.73898 | 10.05523 | 20153 ft | 329 kts | 270° |
| 2026-04-26 21:18 | 47.73816 | 10.02053 | 19714 ft | 340 kts | 270° |
| 2026-04-26 21:18 | 47.73733 | 9.98538 | 19271 ft | 341 kts | 270° |
| 2026-04-26 21:18 | 47.73648 | 9.95027 | 18830 ft | 340 kts | 269° |
| 2026-04-26 21:18 | 47.73561 | 9.91531 | 18385 ft | 338 kts | 269° |
| 2026-04-26 21:19 | 47.73471 | 9.88051 | 17936 ft | 336 kts | 269° |
| 2026-04-26 21:19 | 47.73381 | 9.84597 | 17512 ft | 334 kts | 269° |
| 2026-04-26 21:19 | 47.73292 | 9.81164 | 17099 ft | 332 kts | 269° |
| 2026-04-26 21:19 | 47.73204 | 9.77751 | 16686 ft | 330 kts | 269° |
| 2026-04-26 21:20 | 47.73115 | 9.74358 | 16278 ft | 328 kts | 269° |
| 2026-04-26 21:20 | 47.73024 | 9.70986 | 15868 ft | 326 kts | 269° |
| 2026-04-26 21:20 | 47.72934 | 9.67672 | 15480 ft | 325 kts | 269° |
| 2026-04-26 21:20 | 47.72843 | 9.64316 | 15079 ft | 324 kts | 269° |
| 2026-04-26 21:21 | 47.72750 | 9.60980 | 14679 ft | 323 kts | 269° |
| 2026-04-26 21:21 | 47.72656 | 9.57658 | 14278 ft | 321 kts | 268° |
| 2026-04-26 21:21 | 47.72561 | 9.54353 | 13861 ft | 320 kts | 268° |
| 2026-04-26 21:21 | 47.72464 | 9.51067 | 13435 ft | 318 kts | 268° |
| 2026-04-26 21:22 | 47.72368 | 9.47795 | 13029 ft | 316 kts | 268° |
| 2026-04-26 21:22 | 47.72098 | 9.44574 | 12632 ft | 315 kts | 257° |
| 2026-04-26 21:22 | 47.71334 | 9.41539 | 12236 ft | 315 kts | 243° |
| 2026-04-26 21:23 | 47.68727 | 9.36340 | 11396 ft | 314 kts | 232° |
| 2026-04-26 21:23 | 47.67350 | 9.33837 | 10981 ft | 313 kts | 232° |
| 2026-04-26 21:23 | 47.65977 | 9.31343 | 10577 ft | 312 kts | 232° |
| 2026-04-26 21:23 | 47.64623 | 9.28883 | 10359 ft | 303 kts | 232° |
| 2026-04-26 21:24 | 47.63312 | 9.26505 | 10205 ft | 293 kts | 232° |
| 2026-04-26 21:24 | 47.62037 | 9.24196 | 9921 ft | 288 kts | 232° |
| 2026-04-26 21:24 | 47.60758 | 9.21876 | 9317 ft | 291 kts | 232° |
| 2026-04-26 21:24 | 47.59631 | 9.19435 | 8790 ft | 285 kts | 244° |
| 2026-04-26 21:25 | 47.58977 | 9.16693 | 8156 ft | 283 kts | 259° |
| 2026-04-26 21:25 | 47.58630 | 9.13840 | 7697 ft | 277 kts | 260° |
| 2026-04-26 21:25 | 47.58297 | 9.11123 | 7528 ft | 260 kts | 260° |
| 2026-04-26 21:25 | 47.57980 | 9.08553 | 7285 ft | 248 kts | 260° |
| 2026-04-26 21:26 | 47.57670 | 9.06065 | 7123 ft | 245 kts | 260° |
| 2026-04-26 21:26 | 47.57360 | 9.03586 | 7002 ft | 245 kts | 260° |
| 2026-04-26 21:26 | 47.56838 | 9.01198 | 6836 ft | 244 kts | 236° |
| 2026-04-26 21:26 | 47.55607 | 8.99507 | 6704 ft | 244 kts | 208° |
| 2026-04-26 21:27 | 47.54089 | 8.98358 | 6547 ft | 246 kts | 206° |
| 2026-04-26 21:27 | 47.52571 | 8.97218 | 6388 ft | 245 kts | 206° |
| 2026-04-26 21:27 | 47.51049 | 8.96071 | 6242 ft | 245 kts | 206° |
| 2026-04-26 21:27 | 47.49534 | 8.94927 | 6092 ft | 245 kts | 206° |
| 2026-04-26 21:28 | 47.48015 | 8.93777 | 5944 ft | 245 kts | 206° |
| 2026-04-26 21:28 | 47.46501 | 8.92630 | 5789 ft | 244 kts | 206° |
| 2026-04-26 21:28 | 47.45122 | 8.91295 | 5663 ft | 232 kts | 222° |
| 2026-04-26 21:28 | 47.44150 | 8.89460 | 5507 ft | 225 kts | 242° |
| 2026-04-26 21:29 | 47.43643 | 8.87316 | 5353 ft | 218 kts | 261° |
| 2026-04-26 21:29 | 47.43616 | 8.85173 | 5213 ft | 209 kts | 276° |
| 2026-04-26 21:29 | 47.43771 | 8.83099 | 5122 ft | 198 kts | 276° |
| 2026-04-26 21:29 | 47.43917 | 8.81098 | 4939 ft | 193 kts | 276° |
| 2026-04-26 21:30 | 47.44059 | 8.79174 | 4676 ft | 190 kts | 276° |
| 2026-04-26 21:30 | 47.44199 | 8.77254 | 4403 ft | 187 kts | 276° |
| 2026-04-26 21:30 | 47.44340 | 8.75332 | 4125 ft | 185 kts | 277° |
| 2026-04-26 21:30 | 47.44431 | 8.74083 | 3943 ft | 184 kts | 278° |
| 2026-04-26 21:31 | 47.44610 | 8.71620 | 3628 ft | 182 kts | 278° |
| 2026-04-26 21:31 | 47.44745 | 8.69765 | 3345 ft | 182 kts | 278° |
| 2026-04-26 21:31 | 47.44879 | 8.67913 | 3072 ft | 180 kts | 278° |
| 2026-04-26 21:31 | 47.45011 | 8.66083 | 2816 ft | 177 kts | 278° |
| 2026-04-26 21:32 | 47.45136 | 8.64343 | 2551 ft | 165 kts | 278° |
| 2026-04-26 21:32 | 47.45254 | 8.62692 | 2316 ft | 158 kts | 278° |
| 2026-04-26 21:32 | 47.45373 | 8.61114 | 2046 ft | 152 kts | 277° |
| 2026-04-26 21:32 | 47.45474 | 8.59581 | 1828 ft | 148 kts | 276° |
| 2026-04-26 21:33 | 47.45585 | 8.58077 | 1612 ft | 146 kts | 276° |
| 2026-04-26 21:33 | 47.45691 | 8.56587 | 1435 ft | 145 kts | 277° |
| 2026-04-26 21:33 | 47.45789 | 8.55236 | 1401 ft | 109 kts | 276° |
| 2026-04-26 21:33 | 47.45849 | 8.54390 | 1399 ft | 58 kts | 275° |
| 2026-04-26 21:34 | 47.45881 | 8.53920 | 1396 ft | 26 kts | 276° |
| 2026-04-26 21:34 | 47.45849 | 8.53777 | 1400 ft | 23 kts | 218° |
| 2026-04-26 21:34 | 47.45709 | 8.53816 | 1399 ft | 23 kts | 124° |
| 2026-04-26 21:34 | 47.45662 | 8.54050 | 1387 ft | 24 kts | 106° |
| 2026-04-26 21:35 | 47.45611 | 8.54285 | 1385 ft | 23 kts | 108° |
| 2026-04-26 21:35 | 47.45563 | 8.54506 | 1389 ft | 22 kts | 109° |
| 2026-04-26 21:35 | 47.45518 | 8.54708 | 1397 ft | 20 kts | 108° |
| 2026-04-26 21:35 | 47.45475 | 8.54900 | 1397 ft | 19 kts | 109° |
| 2026-04-26 21:36 | 47.45435 | 8.55068 | 1396 ft | 16 kts | 110° |
| 2026-04-26 21:36 | 47.45400 | 8.55211 | 1405 ft | 14 kts | 110° |
| 2026-04-26 21:36 | 47.45360 | 8.55335 | 1401 ft | 14 kts | 118° |
| 2026-04-26 21:36 | 47.45315 | 8.55457 | 1407 ft | 12 kts | 119° |
| 2026-04-26 21:37 | 47.45282 | 8.55548 | 1407 ft | 9 kts | 114° |
| 2026-04-26 21:37 | 47.45269 | 8.55669 | 1407 ft | 13 kts | 96° |
| 2026-04-26 21:37 | 47.45262 | 8.55774 | 1407 ft | 6 kts | 95° |
| 2026-04-26 21:37 | 47.45291 | 8.55802 | 1407 ft | 7 kts | 9° |
| 2026-04-26 21:38 | 47.45331 | 8.55806 | 1407 ft | 3 kts | 5° |
| 2026-04-26 21:38 | 47.45335 | 8.55807 | 1407 ft | 0 kts | 5° |